sensor_id;sensor_type;location;lat;lon;timestamp;temperature;humidity
5210;DHT22;2624;48.048;11.706;2023-09-30T00:02:55;19.50;99.90
5210;DHT22;2624;48.048;11.706;2023-09-30T00:07:58;19.40;99.90
5210;DHT22;2624;48.048;11.706;2023-09-30T00:13:00;19.30;99.90
5210;DHT22;2624;48.048;11.706;2023-09-30T00:18:02;18.90;99.90
5210;DHT22;2624;48.048;11.706;2023-09-30T00:23:05;19.00;99.90
5210;DHT22;2624;48.048;11.706;2023-09-30T00:28:07;19.10;99.90
5210;DHT22;2624;48.048;11.706;2023-09-30T00:33:09;19.10;99.90
5210;DHT22;2624;48.048;11.706;2023-09-30T00:38:12;19.20;99.90
5210;DHT22;2624;48.048;11.706;2023-09-30T00:43:18;19.10;99.90
5210;DHT22;2624;48.048;11.706;2023-09-30T00:48:20;19.10;99.90
5210;DHT22;2624;48.048;11.706;2023-09-30T00:53:23;18.80;99.90
5210;DHT22;2624;48.048;11.706;2023-09-30T00:58:26;18.90;99.90
5210;DHT22;2624;48.048;11.706;2023-09-30T01:03:29;18.80;99.90
5210;DHT22;2624;48.048;11.706;2023-09-30T01:08:33;18.70;99.90
5210;DHT22;2624;48.048;11.706;2023-09-30T01:13:35;18.90;99.90
5210;DHT22;2624;48.048;11.706;2023-09-30T01:18:39;19.00;99.90
5210;DHT22;2624;48.048;11.706;2023-09-30T01:23:44;18.90;99.90
5210;DHT22;2624;48.048;11.706;2023-09-30T01:28:47;18.70;99.90
5210;DHT22;2624;48.048;11.706;2023-09-30T01:33:49;18.50;99.90
5210;DHT22;2624;48.048;11.706;2023-09-30T01:38:55;18.60;99.90
5210;DHT22;2624;48.048;11.706;2023-09-30T01:43:58;18.60;99.90
5210;DHT22;2624;48.048;11.706;2023-09-30T01:48:59;18.50;99.90
5210;DHT22;2624;48.048;11.706;2023-09-30T01:54:03;18.60;99.90
5210;DHT22;2624;48.048;11.706;2023-09-30T01:59:04;18.70;99.90
5210;DHT22;2624;48.048;11.706;2023-09-30T02:04:06;18.60;99.90
5210;DHT22;2624;48.048;11.706;2023-09-30T02:09:09;18.50;99.90
5210;DHT22;2624;48.048;11.706;2023-09-30T02:14:11;18.50;99.90
5210;DHT22;2624;48.048;11.706;2023-09-30T02:19:13;18.50;99.90
5210;DHT22;2624;48.048;11.706;2023-09-30T02:24:16;18.50;99.90
5210;DHT22;2624;48.048;11.706;2023-09-30T02:29:18;18.40;99.90
5210;DHT22;2624;48.048;11.706;2023-09-30T02:34:20;18.50;99.90
5210;DHT22;2624;48.048;11.706;2023-09-30T02:39:24;18.50;99.90
5210;DHT22;2624;48.048;11.706;2023-09-30T02:44:26;18.50;99.90
5210;DHT22;2624;48.048;11.706;2023-09-30T02:49:30;18.50;99.90
5210;DHT22;2624;48.048;11.706;2023-09-30T02:54:35;18.30;99.90
5210;DHT22;2624;48.048;11.706;2023-09-30T02:59:36;18.40;99.90
5210;DHT22;2624;48.048;11.706;2023-09-30T03:04:38;18.40;99.90
5210;DHT22;2624;48.048;11.706;2023-09-30T03:09:41;18.40;99.90
5210;DHT22;2624;48.048;11.706;2023-09-30T03:14:43;18.20;99.90
5210;DHT22;2624;48.048;11.706;2023-09-30T03:19:45;18.20;99.90
5210;DHT22;2624;48.048;11.706;2023-09-30T03:24:49;18.10;99.90
5210;DHT22;2624;48.048;11.706;2023-09-30T03:29:51;18.20;99.90
5210;DHT22;2624;48.048;11.706;2023-09-30T03:34:52;18.20;99.90
5210;DHT22;2624;48.048;11.706;2023-09-30T03:39:56;18.20;99.90
5210;DHT22;2624;48.048;11.706;2023-09-30T03:44:57;18.30;99.90
5210;DHT22;2624;48.048;11.706;2023-09-30T03:49:59;18.20;99.90
5210;DHT22;2624;48.048;11.706;2023-09-30T03:55:05;18.30;99.90
5210;DHT22;2624;48.048;11.706;2023-09-30T04:00:08;18.20;99.90
5210;DHT22;2624;48.048;11.706;2023-09-30T04:05:16;18.20;99.90
5210;DHT22;2624;48.048;11.706;2023-09-30T04:10:20;18.00;99.90
5210;DHT22;2624;48.048;11.706;2023-09-30T04:15:23;18.10;99.90
5210;DHT22;2624;48.048;11.706;2023-09-30T04:20:24;18.10;99.90
5210;DHT22;2624;48.048;11.706;2023-09-30T04:25:29;17.90;99.90
5210;DHT22;2624;48.048;11.706;2023-09-30T04:30:30;18.00;99.90
5210;DHT22;2624;48.048;11.706;2023-09-30T04:35:33;18.00;99.90
5210;DHT22;2624;48.048;11.706;2023-09-30T04:40:37;18.00;99.90
5210;DHT22;2624;48.048;11.706;2023-09-30T04:45:39;18.00;99.90
5210;DHT22;2624;48.048;11.706;2023-09-30T04:50:40;17.90;99.90
5210;DHT22;2624;48.048;11.706;2023-09-30T04:55:44;17.70;99.90
5210;DHT22;2624;48.048;11.706;2023-09-30T05:00:46;17.70;99.90
5210;DHT22;2624;48.048;11.706;2023-09-30T05:05:48;17.70;99.90
5210;DHT22;2624;48.048;11.706;2023-09-30T05:10:51;17.70;99.90
5210;DHT22;2624;48.048;11.706;2023-09-30T05:15:55;17.80;99.90
5210;DHT22;2624;48.048;11.706;2023-09-30T05:20:57;17.80;99.90
5210;DHT22;2624;48.048;11.706;2023-09-30T05:26:00;17.60;99.90
5210;DHT22;2624;48.048;11.706;2023-09-30T05:31:02;17.70;99.90
5210;DHT22;2624;48.048;11.706;2023-09-30T05:36:04;17.80;99.90
5210;DHT22;2624;48.048;11.706;2023-09-30T05:41:07;17.80;99.90
5210;DHT22;2624;48.048;11.706;2023-09-30T05:46:09;17.60;99.90
5210;DHT22;2624;48.048;11.706;2023-09-30T05:51:11;17.70;99.90
5210;DHT22;2624;48.048;11.706;2023-09-30T05:56:16;17.60;99.90
5210;DHT22;2624;48.048;11.706;2023-09-30T06:01:18;17.60;99.90
5210;DHT22;2624;48.048;11.706;2023-09-30T06:06:20;17.70;99.90
5210;DHT22;2624;48.048;11.706;2023-09-30T06:11:24;17.70;99.90
5210;DHT22;2624;48.048;11.706;2023-09-30T06:16:28;17.70;99.90
5210;DHT22;2624;48.048;11.706;2023-09-30T06:21:32;17.60;99.90
5210;DHT22;2624;48.048;11.706;2023-09-30T06:26:36;17.50;99.90
5210;DHT22;2624;48.048;11.706;2023-09-30T06:31:38;17.60;99.90
5210;DHT22;2624;48.048;11.706;2023-09-30T06:36:40;17.50;99.90
5210;DHT22;2624;48.048;11.706;2023-09-30T06:41:43;17.50;99.90
5210;DHT22;2624;48.048;11.706;2023-09-30T06:46:46;17.50;99.90
5210;DHT22;2624;48.048;11.706;2023-09-30T06:51:51;17.50;99.90
5210;DHT22;2624;48.048;11.706;2023-09-30T06:56:54;17.50;99.90
5210;DHT22;2624;48.048;11.706;2023-09-30T07:01:56;17.50;99.90
5210;DHT22;2624;48.048;11.706;2023-09-30T07:06:57;17.60;99.90
5210;DHT22;2624;48.048;11.706;2023-09-30T07:12:01;17.60;99.90
5210;DHT22;2624;48.048;11.706;2023-09-30T07:17:02;17.50;99.90
5210;DHT22;2624;48.048;11.706;2023-09-30T07:22:05;17.50;99.90
5210;DHT22;2624;48.048;11.706;2023-09-30T07:27:08;17.20;99.90
5210;DHT22;2624;48.048;11.706;2023-09-30T07:32:09;17.30;99.90
5210;DHT22;2624;48.048;11.706;2023-09-30T07:37:11;17.40;99.90
5210;DHT22;2624;48.048;11.706;2023-09-30T07:42:16;17.40;99.90
5210;DHT22;2624;48.048;11.706;2023-09-30T07:47:18;17.40;99.90
5210;DHT22;2624;48.048;11.706;2023-09-30T07:52:19;17.50;99.90
5210;DHT22;2624;48.048;11.706;2023-09-30T07:57:22;17.50;99.90
5210;DHT22;2624;48.048;11.706;2023-09-30T08:02:24;17.30;99.90
5210;DHT22;2624;48.048;11.706;2023-09-30T08:07:33;17.40;99.90
5210;DHT22;2624;48.048;11.706;2023-09-30T08:12:36;17.40;99.90
5210;DHT22;2624;48.048;11.706;2023-09-30T08:17:38;17.50;99.90
5210;DHT22;2624;48.048;11.706;2023-09-30T08:22:40;17.50;99.90
5210;DHT22;2624;48.048;11.706;2023-09-30T08:27:43;17.50;99.90
5210;DHT22;2624;48.048;11.706;2023-09-30T08:32:46;17.50;99.90
5210;DHT22;2624;48.048;11.706;2023-09-30T08:37:47;17.50;99.90
5210;DHT22;2624;48.048;11.706;2023-09-30T08:42:52;17.50;99.90
5210;DHT22;2624;48.048;11.706;2023-09-30T08:47:54;17.50;99.90
5210;DHT22;2624;48.048;11.706;2023-09-30T08:52:56;17.50;99.90
5210;DHT22;2624;48.048;11.706;2023-09-30T08:57:59;17.50;99.90
5210;DHT22;2624;48.048;11.706;2023-09-30T09:03:02;17.60;99.90
5210;DHT22;2624;48.048;11.706;2023-09-30T09:08:04;17.60;99.90
5210;DHT22;2624;48.048;11.706;2023-09-30T09:13:07;17.60;99.90
5210;DHT22;2624;48.048;11.706;2023-09-30T09:18:09;17.60;99.90
5210;DHT22;2624;48.048;11.706;2023-09-30T09:23:14;17.60;99.90
5210;DHT22;2624;48.048;11.706;2023-09-30T09:28:18;17.80;99.90
5210;DHT22;2624;48.048;11.706;2023-09-30T09:33:19;17.70;99.90
5210;DHT22;2624;48.048;11.706;2023-09-30T09:38:21;17.80;99.90
5210;DHT22;2624;48.048;11.706;2023-09-30T09:43:24;17.70;99.90
5210;DHT22;2624;48.048;11.706;2023-09-30T09:48:26;17.80;99.90
5210;DHT22;2624;48.048;11.706;2023-09-30T09:53:30;17.80;99.90
5210;DHT22;2624;48.048;11.706;2023-09-30T09:58:34;17.80;99.90
5210;DHT22;2624;48.048;11.706;2023-09-30T10:03:39;17.80;99.90
5210;DHT22;2624;48.048;11.706;2023-09-30T10:08:43;18.00;99.90
5210;DHT22;2624;48.048;11.706;2023-09-30T10:13:55;18.20;99.90
5210;DHT22;2624;48.048;11.706;2023-09-30T10:19:10;18.20;99.90
5210;DHT22;2624;48.048;11.706;2023-09-30T10:24:28;18.20;99.90
5210;DHT22;2624;48.048;11.706;2023-09-30T10:29:41;18.30;99.90
5210;DHT22;2624;48.048;11.706;2023-09-30T10:34:47;18.40;99.90
5210;DHT22;2624;48.048;11.706;2023-09-30T10:39:57;18.30;99.90
5210;DHT22;2624;48.048;11.706;2023-09-30T10:45:00;18.40;99.90
5210;DHT22;2624;48.048;11.706;2023-09-30T10:50:03;18.30;99.90
5210;DHT22;2624;48.048;11.706;2023-09-30T10:55:26;18.40;99.90
5210;DHT22;2624;48.048;11.706;2023-09-30T11:00:29;18.60;99.90
5210;DHT22;2624;48.048;11.706;2023-09-30T11:05:31;18.60;99.90
5210;DHT22;2624;48.048;11.706;2023-09-30T11:10:34;18.70;99.90
5210;DHT22;2624;48.048;11.706;2023-09-30T11:15:37;18.80;99.90
5210;DHT22;2624;48.048;11.706;2023-09-30T11:20:39;18.90;99.90
5210;DHT22;2624;48.048;11.706;2023-09-30T11:25:41;19.00;99.90
5210;DHT22;2624;48.048;11.706;2023-09-30T11:30:57;18.90;99.90
5210;DHT22;2624;48.048;11.706;2023-09-30T11:36:01;18.90;99.90
5210;DHT22;2624;48.048;11.706;2023-09-30T11:41:05;19.10;99.90
5210;DHT22;2624;48.048;11.706;2023-09-30T11:46:09;19.10;99.90
5210;DHT22;2624;48.048;11.706;2023-09-30T11:51:11;19.40;99.90
5210;DHT22;2624;48.048;11.706;2023-09-30T11:56:14;19.20;99.90
5210;DHT22;2624;48.048;11.706;2023-09-30T12:01:17;19.10;99.90
5210;DHT22;2624;48.048;11.706;2023-09-30T12:06:20;19.20;99.90
5210;DHT22;2624;48.048;11.706;2023-09-30T12:11:22;19.10;99.90
5210;DHT22;2624;48.048;11.706;2023-09-30T12:16:25;19.10;99.90
5210;DHT22;2624;48.048;11.706;2023-09-30T12:21:27;19.20;99.90
5210;DHT22;2624;48.048;11.706;2023-09-30T12:26:30;19.30;99.90
5210;DHT22;2624;48.048;11.706;2023-09-30T12:31:33;19.70;99.90
5210;DHT22;2624;48.048;11.706;2023-09-30T12:36:34;20.00;99.90
5210;DHT22;2624;48.048;11.706;2023-09-30T12:41:36;20.10;99.90
5210;DHT22;2624;48.048;11.706;2023-09-30T12:46:39;20.10;99.90
5210;DHT22;2624;48.048;11.706;2023-09-30T12:51:41;20.20;99.90
5210;DHT22;2624;48.048;11.706;2023-09-30T12:56:43;20.00;99.90
5210;DHT22;2624;48.048;11.706;2023-09-30T13:01:46;20.10;99.90
5210;DHT22;2624;48.048;11.706;2023-09-30T13:06:49;20.30;99.90
5210;DHT22;2624;48.048;11.706;2023-09-30T13:11:51;20.30;99.90
5210;DHT22;2624;48.048;11.706;2023-09-30T13:16:54;20.30;99.90
5210;DHT22;2624;48.048;11.706;2023-09-30T13:21:56;20.00;99.90
5210;DHT22;2624;48.048;11.706;2023-09-30T13:26:58;20.10;99.90
5210;DHT22;2624;48.048;11.706;2023-09-30T13:32:01;20.00;99.90
5210;DHT22;2624;48.048;11.706;2023-09-30T13:37:04;19.90;99.90
5210;DHT22;2624;48.048;11.706;2023-09-30T13:42:06;20.10;99.90
5210;DHT22;2624;48.048;11.706;2023-09-30T13:47:09;20.30;99.90
5210;DHT22;2624;48.048;11.706;2023-09-30T13:52:11;20.30;99.90
5210;DHT22;2624;48.048;11.706;2023-09-30T13:57:12;20.20;99.90
5210;DHT22;2624;48.048;11.706;2023-09-30T14:02:16;20.40;99.90
5210;DHT22;2624;48.048;11.706;2023-09-30T14:07:18;20.30;99.90
5210;DHT22;2624;48.048;11.706;2023-09-30T14:12:20;20.40;99.90
5210;DHT22;2624;48.048;11.706;2023-09-30T14:17:23;20.20;99.90
5210;DHT22;2624;48.048;11.706;2023-09-30T14:22:26;20.10;99.90
5210;DHT22;2624;48.048;11.706;2023-09-30T14:27:27;20.20;99.90
5210;DHT22;2624;48.048;11.706;2023-09-30T14:32:31;20.20;99.90
5210;DHT22;2624;48.048;11.706;2023-09-30T14:37:33;20.20;99.90
5210;DHT22;2624;48.048;11.706;2023-09-30T14:42:35;20.10;99.90
5210;DHT22;2624;48.048;11.706;2023-09-30T14:47:39;20.00;99.90
5210;DHT22;2624;48.048;11.706;2023-09-30T14:52:40;20.00;99.90
5210;DHT22;2624;48.048;11.706;2023-09-30T14:57:42;20.00;99.90
5210;DHT22;2624;48.048;11.706;2023-09-30T15:02:45;20.00;99.90
5210;DHT22;2624;48.048;11.706;2023-09-30T15:07:47;20.00;99.90
5210;DHT22;2624;48.048;11.706;2023-09-30T15:12:49;20.00;99.90
5210;DHT22;2624;48.048;11.706;2023-09-30T15:17:52;20.00;99.90
5210;DHT22;2624;48.048;11.706;2023-09-30T15:22:55;20.00;99.90
5210;DHT22;2624;48.048;11.706;2023-09-30T15:27:56;19.90;99.90
5210;DHT22;2624;48.048;11.706;2023-09-30T15:32:59;19.90;99.90
5210;DHT22;2624;48.048;11.706;2023-09-30T15:38:03;19.90;99.90
5210;DHT22;2624;48.048;11.706;2023-09-30T15:43:06;19.90;99.90
5210;DHT22;2624;48.048;11.706;2023-09-30T15:48:09;19.90;99.90
5210;DHT22;2624;48.048;11.706;2023-09-30T15:53:11;19.90;99.90
5210;DHT22;2624;48.048;11.706;2023-09-30T15:58:12;19.90;99.90
5210;DHT22;2624;48.048;11.706;2023-09-30T16:03:17;19.90;99.90
5210;DHT22;2624;48.048;11.706;2023-09-30T16:08:19;19.80;99.90
5210;DHT22;2624;48.048;11.706;2023-09-30T16:13:20;19.70;99.90
5210;DHT22;2624;48.048;11.706;2023-09-30T16:18:23;19.70;99.90
5210;DHT22;2624;48.048;11.706;2023-09-30T16:23:25;19.70;99.90
5210;DHT22;2624;48.048;11.706;2023-09-30T16:28:27;19.60;99.90
5210;DHT22;2624;48.048;11.706;2023-09-30T16:33:30;19.60;99.90
5210;DHT22;2624;48.048;11.706;2023-09-30T16:38:32;19.60;99.90
5210;DHT22;2624;48.048;11.706;2023-09-30T16:43:34;19.60;99.90
5210;DHT22;2624;48.048;11.706;2023-09-30T16:48:38;19.50;99.90
5210;DHT22;2624;48.048;11.706;2023-09-30T16:53:40;19.40;99.90
5210;DHT22;2624;48.048;11.706;2023-09-30T16:58:42;19.10;99.90
5210;DHT22;2624;48.048;11.706;2023-09-30T17:03:45;19.20;99.90
5210;DHT22;2624;48.048;11.706;2023-09-30T17:08:47;18.90;99.90
5210;DHT22;2624;48.048;11.706;2023-09-30T17:13:48;18.60;99.90
5210;DHT22;2624;48.048;11.706;2023-09-30T17:18:52;18.40;99.90
5210;DHT22;2624;48.048;11.706;2023-09-30T17:23:54;18.20;99.90
5210;DHT22;2624;48.048;11.706;2023-09-30T17:28:56;18.80;99.90
5210;DHT22;2624;48.048;11.706;2023-09-30T17:33:59;18.90;99.90
5210;DHT22;2624;48.048;11.706;2023-09-30T17:39:01;18.70;99.90
5210;DHT22;2624;48.048;11.706;2023-09-30T17:44:03;18.90;99.90
5210;DHT22;2624;48.048;11.706;2023-09-30T17:49:07;18.60;99.90
5210;DHT22;2624;48.048;11.706;2023-09-30T17:54:09;18.50;99.90
5210;DHT22;2624;48.048;11.706;2023-09-30T17:59:11;18.30;99.90
5210;DHT22;2624;48.048;11.706;2023-09-30T18:04:14;18.50;99.90
5210;DHT22;2624;48.048;11.706;2023-09-30T18:09:16;18.50;99.90
5210;DHT22;2624;48.048;11.706;2023-09-30T18:14:18;18.30;99.90
5210;DHT22;2624;48.048;11.706;2023-09-30T18:19:23;18.30;99.90
5210;DHT22;2624;48.048;11.706;2023-09-30T18:24:24;18.50;99.90
5210;DHT22;2624;48.048;11.706;2023-09-30T18:29:26;18.40;99.90
5210;DHT22;2624;48.048;11.706;2023-09-30T18:34:29;18.50;99.90
5210;DHT22;2624;48.048;11.706;2023-09-30T18:39:32;18.40;99.90
5210;DHT22;2624;48.048;11.706;2023-09-30T18:44:34;18.40;99.90
5210;DHT22;2624;48.048;11.706;2023-09-30T18:49:37;18.20;99.90
5210;DHT22;2624;48.048;11.706;2023-09-30T18:54:39;18.20;99.90
5210;DHT22;2624;48.048;11.706;2023-09-30T18:59:42;18.20;99.90
5210;DHT22;2624;48.048;11.706;2023-09-30T19:04:45;17.90;99.90
5210;DHT22;2624;48.048;11.706;2023-09-30T19:09:47;18.00;99.90
5210;DHT22;2624;48.048;11.706;2023-09-30T19:14:49;18.10;99.90
5210;DHT22;2624;48.048;11.706;2023-09-30T19:19:52;18.00;99.90
5210;DHT22;2624;48.048;11.706;2023-09-30T19:24:54;18.00;99.90
5210;DHT22;2624;48.048;11.706;2023-09-30T19:29:56;17.90;99.90
5210;DHT22;2624;48.048;11.706;2023-09-30T19:34:59;17.90;99.90
5210;DHT22;2624;48.048;11.706;2023-09-30T19:40:01;17.80;99.90
5210;DHT22;2624;48.048;11.706;2023-09-30T19:45:04;17.80;99.90
5210;DHT22;2624;48.048;11.706;2023-09-30T19:50:08;17.70;99.90
5210;DHT22;2624;48.048;11.706;2023-09-30T19:55:10;17.70;99.90
5210;DHT22;2624;48.048;11.706;2023-09-30T20:00:13;17.70;99.90
5210;DHT22;2624;48.048;11.706;2023-09-30T20:05:18;17.00;99.90
5210;DHT22;2624;48.048;11.706;2023-09-30T20:10:20;16.60;99.90
5210;DHT22;2624;48.048;11.706;2023-09-30T20:15:23;16.90;99.90
5210;DHT22;2624;48.048;11.706;2023-09-30T20:20:26;17.00;99.90
5210;DHT22;2624;48.048;11.706;2023-09-30T20:25:29;17.20;99.90
5210;DHT22;2624;48.048;11.706;2023-09-30T20:30:31;17.30;99.90
5210;DHT22;2624;48.048;11.706;2023-09-30T20:35:34;16.90;99.90
5210;DHT22;2624;48.048;11.706;2023-09-30T20:40:38;17.20;99.90
5210;DHT22;2624;48.048;11.706;2023-09-30T20:45:42;16.80;99.90
5210;DHT22;2624;48.048;11.706;2023-09-30T20:50:45;16.40;99.90
5210;DHT22;2624;48.048;11.706;2023-09-30T20:55:47;16.50;99.90
5210;DHT22;2624;48.048;11.706;2023-09-30T21:00:49;16.80;99.90
5210;DHT22;2624;48.048;11.706;2023-09-30T21:05:52;16.90;99.90
5210;DHT22;2624;48.048;11.706;2023-09-30T21:10:54;16.90;99.90
5210;DHT22;2624;48.048;11.706;2023-09-30T21:15:56;16.90;99.90
5210;DHT22;2624;48.048;11.706;2023-09-30T21:20:59;16.90;99.90
5210;DHT22;2624;48.048;11.706;2023-09-30T21:26:02;16.90;99.90
5210;DHT22;2624;48.048;11.706;2023-09-30T21:31:05;16.60;99.90
5210;DHT22;2624;48.048;11.706;2023-09-30T21:36:08;16.70;99.90
5210;DHT22;2624;48.048;11.706;2023-09-30T21:41:13;16.70;99.90
5210;DHT22;2624;48.048;11.706;2023-09-30T21:46:15;16.00;99.90
5210;DHT22;2624;48.048;11.706;2023-09-30T21:51:19;16.20;99.90
5210;DHT22;2624;48.048;11.706;2023-09-30T21:56:20;15.70;99.90
5210;DHT22;2624;48.048;11.706;2023-09-30T22:01:22;15.60;99.90
5210;DHT22;2624;48.048;11.706;2023-09-30T22:06:26;16.20;99.90
5210;DHT22;2624;48.048;11.706;2023-09-30T22:11:29;16.10;99.90
5210;DHT22;2624;48.048;11.706;2023-09-30T22:16:31;15.40;99.90
5210;DHT22;2624;48.048;11.706;2023-09-30T22:21:34;16.00;99.90
5210;DHT22;2624;48.048;11.706;2023-09-30T22:26:36;16.20;99.90
5210;DHT22;2624;48.048;11.706;2023-09-30T22:31:37;16.10;99.90
5210;DHT22;2624;48.048;11.706;2023-09-30T22:36:41;15.90;99.90
5210;DHT22;2624;48.048;11.706;2023-09-30T22:41:43;16.00;99.90
5210;DHT22;2624;48.048;11.706;2023-09-30T22:46:44;15.40;99.90
5210;DHT22;2624;48.048;11.706;2023-09-30T22:51:48;15.00;99.90
5210;DHT22;2624;48.048;11.706;2023-09-30T22:56:50;15.60;99.90
5210;DHT22;2624;48.048;11.706;2023-09-30T23:01:54;16.00;99.90
5210;DHT22;2624;48.048;11.706;2023-09-30T23:06:57;16.00;99.90
5210;DHT22;2624;48.048;11.706;2023-09-30T23:12:00;15.50;99.90
5210;DHT22;2624;48.048;11.706;2023-09-30T23:17:03;15.60;99.90
5210;DHT22;2624;48.048;11.706;2023-09-30T23:22:07;15.00;99.90
5210;DHT22;2624;48.048;11.706;2023-09-30T23:27:14;14.60;99.90
5210;DHT22;2624;48.048;11.706;2023-09-30T23:32:16;15.20;99.90
5210;DHT22;2624;48.048;11.706;2023-09-30T23:37:19;15.60;99.90
5210;DHT22;2624;48.048;11.706;2023-09-30T23:42:21;15.70;99.90
5210;DHT22;2624;48.048;11.706;2023-09-30T23:47:22;15.70;99.90
5210;DHT22;2624;48.048;11.706;2023-09-30T23:52:26;15.70;99.90
5210;DHT22;2624;48.048;11.706;2023-09-30T23:57:28;15.30;99.90
